createdAt,value
2018-09-05T00:00:04.375Z,18.90
2018-09-05T00:02:33.402Z,18.90
2018-09-05T00:05:03.164Z,18.80
2018-09-05T00:07:32.453Z,18.80
2018-09-05T00:10:02.427Z,18.80
2018-09-05T00:12:31.652Z,18.80
2018-09-05T00:15:01.152Z,18.70
2018-09-05T00:17:30.236Z,18.70
2018-09-05T00:19:59.375Z,18.70
2018-09-05T00:22:28.696Z,18.60
2018-09-05T00:24:57.749Z,18.60
2018-09-05T00:27:27.019Z,18.60
2018-09-05T00:29:56.024Z,18.50
2018-09-05T00:32:25.081Z,18.50
2018-09-05T00:34:54.869Z,18.50
2018-09-05T00:37:23.928Z,18.40
2018-09-05T00:39:52.874Z,18.40
2018-09-05T00:42:21.725Z,18.40
2018-09-05T00:44:50.643Z,18.30
2018-09-05T00:47:19.628Z,18.30
2018-09-05T00:49:48.524Z,18.30
2018-09-05T00:52:17.560Z,18.20
2018-09-05T00:54:46.462Z,18.20
2018-09-05T00:57:15.389Z,18.20
2018-09-05T00:59:44.324Z,18.20
2018-09-05T01:02:13.253Z,18.20
2018-09-05T01:04:42.204Z,18.10
2018-09-05T01:07:22.066Z,18.10
2018-09-05T01:09:50.934Z,18.00
2018-09-05T01:12:21.210Z,18.00
2018-09-05T01:14:51.545Z,18.00
2018-09-05T01:17:20.710Z,17.90
2018-09-05T01:19:49.721Z,17.90
2018-09-05T01:22:18.644Z,17.90
2018-09-05T01:24:47.537Z,17.80
2018-09-05T01:27:16.404Z,17.80
2018-09-05T01:29:45.545Z,17.80
2018-09-05T01:32:14.700Z,17.80
2018-09-05T01:34:43.596Z,17.70
2018-09-05T01:37:12.625Z,17.70
2018-09-05T01:39:41.578Z,17.70
2018-09-05T01:42:11.161Z,17.70
2018-09-05T01:44:40.614Z,17.60
2018-09-05T01:47:09.781Z,17.60
2018-09-05T01:49:38.760Z,17.60
2018-09-05T01:52:07.729Z,17.60
2018-09-05T01:54:36.699Z,17.60
2018-09-05T01:57:05.841Z,17.60
2018-09-05T01:59:34.771Z,17.50
2018-09-05T02:02:04.060Z,17.50
2018-09-05T02:04:33.141Z,17.50
2018-09-05T02:07:02.063Z,17.50
2018-09-05T02:09:31.012Z,17.50
2018-09-05T02:11:59.955Z,17.40
2018-09-05T02:14:28.976Z,17.40
2018-09-05T02:16:57.800Z,17.30
2018-09-05T02:19:26.818Z,17.30
2018-09-05T02:21:55.765Z,17.30
2018-09-05T02:24:24.568Z,17.30
2018-09-05T02:26:53.356Z,17.20
2018-09-05T02:29:22.236Z,17.20
2018-09-05T02:31:51.215Z,17.20
2018-09-05T02:34:20.340Z,17.10
2018-09-05T02:36:49.284Z,17.10
2018-09-05T02:39:18.186Z,17.10
2018-09-05T02:41:47.142Z,17.10
2018-09-05T02:44:21.093Z,17.00
2018-09-05T02:46:50.444Z,17.00
2018-09-05T02:49:19.304Z,16.90
2018-09-05T02:51:48.369Z,16.90
2018-09-05T02:54:17.229Z,16.90
2018-09-05T02:56:46.173Z,16.80
2018-09-05T02:59:15.189Z,16.80
2018-09-05T03:01:44.024Z,16.80
2018-09-05T03:04:13.002Z,16.70
2018-09-05T03:06:41.933Z,16.70
2018-09-05T03:09:10.805Z,16.70
2018-09-05T03:11:39.698Z,16.70
2018-09-05T03:14:08.678Z,16.60
2018-09-05T03:16:37.642Z,16.60
2018-09-05T03:19:06.720Z,16.50
2018-09-05T03:21:35.719Z,16.50
2018-09-05T03:24:04.672Z,16.50
2018-09-05T03:26:33.580Z,16.50
2018-09-05T03:29:02.514Z,16.40
2018-09-05T03:31:31.586Z,16.40
2018-09-05T03:34:00.599Z,16.40
2018-09-05T03:36:29.514Z,16.40
2018-09-05T03:38:58.461Z,16.40
2018-09-05T03:41:27.602Z,16.40
2018-09-05T03:43:56.709Z,16.30
2018-09-05T03:46:25.780Z,16.30
2018-09-05T03:48:55.054Z,16.30
2018-09-05T03:51:24.305Z,16.30
2018-09-05T03:53:53.172Z,16.20
2018-09-05T03:56:22.268Z,16.20
2018-09-05T03:58:51.266Z,16.20
2018-09-05T04:01:20.168Z,16.10
2018-09-05T04:03:49.018Z,16.10
2018-09-05T04:06:21.105Z,16.10
2018-09-05T04:08:51.407Z,16.10
2018-09-05T04:11:20.402Z,16.10
2018-09-05T04:13:49.813Z,16.00
2018-09-05T04:16:18.863Z,16.00
2018-09-05T04:18:47.716Z,16.00
2018-09-05T04:21:16.660Z,15.90
2018-09-05T04:23:46.655Z,15.90
2018-09-05T04:26:16.748Z,15.90
2018-09-05T04:28:45.819Z,15.90
2018-09-05T04:31:15.532Z,15.80
2018-09-05T04:33:44.511Z,15.80
2018-09-05T04:36:14.541Z,15.80
2018-09-05T04:38:44.172Z,15.80
2018-09-05T04:41:13.660Z,15.70
2018-09-05T04:43:42.610Z,15.70
2018-09-05T04:46:12.053Z,15.60
2018-09-05T04:48:41.073Z,15.60
2018-09-05T04:51:10.131Z,15.60
2018-09-05T04:53:39.631Z,15.60
2018-09-05T04:56:15.289Z,15.60
2018-09-05T04:58:44.440Z,15.60
2018-09-05T05:08:05.107Z,15.60
2018-09-05T05:10:34.027Z,15.40
2018-09-05T05:13:02.894Z,15.40
2018-09-05T05:15:35.908Z,15.50
2018-09-05T05:18:12.650Z,15.50
2018-09-05T05:20:41.603Z,15.50
2018-09-05T05:23:10.575Z,15.50
2018-09-05T05:25:39.455Z,15.60
2018-09-05T05:28:08.590Z,15.60
2018-09-05T05:30:38.011Z,15.60
2018-09-05T05:33:06.813Z,15.60
2018-09-05T05:35:35.962Z,15.60
2018-09-05T05:38:04.842Z,15.60
2018-09-05T05:40:33.772Z,15.60
2018-09-05T05:43:02.792Z,15.70
2018-09-05T05:45:31.792Z,15.70
2018-09-05T05:48:00.778Z,15.70
2018-09-05T05:50:29.852Z,15.80
2018-09-05T05:52:58.809Z,15.80
2018-09-05T05:55:27.887Z,15.80
2018-09-05T05:57:56.869Z,15.80
2018-09-05T06:00:26.583Z,15.90
2018-09-05T06:02:56.352Z,15.90
2018-09-05T06:05:25.391Z,15.90
2018-09-05T06:07:54.771Z,16.00
2018-09-05T06:10:27.682Z,16.00
2018-09-05T06:12:58.427Z,16.00
2018-09-05T06:15:28.279Z,16.10
2018-09-05T06:17:57.639Z,16.10
2018-09-05T06:20:26.589Z,16.20
2018-09-05T06:22:55.522Z,16.20
2018-09-05T06:25:24.639Z,16.20
2018-09-05T06:27:53.747Z,16.20
2018-09-05T06:30:22.920Z,16.30
2018-09-05T06:32:51.953Z,16.40
2018-09-05T06:35:21.018Z,16.40
2018-09-05T06:37:50.051Z,16.50
2018-09-05T06:40:18.917Z,16.50
2018-09-05T06:42:47.809Z,16.50
2018-09-05T06:45:17.067Z,16.60
2018-09-05T06:47:46.260Z,16.60
2018-09-05T06:50:15.168Z,16.70
2018-09-05T06:52:44.083Z,16.70
2018-09-05T06:55:13.925Z,16.80
2018-09-05T06:57:43.127Z,16.90
2018-09-05T07:00:13.438Z,16.90
2018-09-05T07:02:42.452Z,16.90
2018-09-05T07:05:11.494Z,17.00
2018-09-05T07:07:40.452Z,17.00
2018-09-05T07:10:09.403Z,17.10
2018-09-05T07:12:38.663Z,17.20
2018-09-05T07:15:08.299Z,17.20
2018-09-05T07:17:37.689Z,17.30
2018-09-05T07:20:06.678Z,17.30
2018-09-05T07:22:35.717Z,17.40
2018-09-05T07:25:04.784Z,17.40
2018-09-05T07:27:33.653Z,17.50
2018-09-05T07:30:06.902Z,17.60
2018-09-05T07:32:41.313Z,17.60
2018-09-05T07:35:14.643Z,17.70
2018-09-05T07:37:49.409Z,17.80
2018-09-05T07:40:23.070Z,17.80
2018-09-05T07:42:57.642Z,17.80
2018-09-05T07:45:31.130Z,17.90
2018-09-05T07:48:04.700Z,18.00
2018-09-05T07:50:38.298Z,18.00
2018-09-05T07:53:11.788Z,18.10
2018-09-05T07:55:44.932Z,18.20
2018-09-05T07:58:18.078Z,18.20
2018-09-05T08:00:51.463Z,18.30
2018-09-05T08:03:25.179Z,18.30
2018-09-05T08:05:58.236Z,18.40
2018-09-05T08:08:31.884Z,18.40
2018-09-05T08:11:05.099Z,18.50
2018-09-05T08:13:38.811Z,18.50
2018-09-05T08:16:12.014Z,18.60
2018-09-05T08:18:45.389Z,18.60
2018-09-05T08:21:19.360Z,18.70
2018-09-05T08:23:53.206Z,18.80
2018-09-05T08:26:26.277Z,18.80
2018-09-05T08:28:59.338Z,18.90
2018-09-05T08:31:33.214Z,19.00
2018-09-05T08:34:06.436Z,19.00
2018-09-05T08:36:40.232Z,19.00
2018-09-05T08:39:16.403Z,19.10
2018-09-05T08:41:51.525Z,19.20
2018-09-05T08:44:24.792Z,19.20
2018-09-05T08:46:58.668Z,19.30
2018-09-05T08:49:33.244Z,19.40
2018-09-05T08:52:06.983Z,19.40
2018-09-05T08:54:40.484Z,19.50
2018-09-05T08:57:14.039Z,19.60
2018-09-05T08:59:47.379Z,19.70
2018-09-05T09:02:20.895Z,19.70
2018-09-05T09:04:54.899Z,19.80
2018-09-05T09:07:29.215Z,19.90
2018-09-05T09:10:01.740Z,20.00
2018-09-05T09:12:38.081Z,20.00
2018-09-05T09:15:13.351Z,20.10
2018-09-05T09:17:47.520Z,20.10
2018-09-05T09:20:21.615Z,20.20
2018-09-05T09:22:56.249Z,20.20
2018-09-05T09:25:31.007Z,20.30
2018-09-05T09:28:06.227Z,20.30
2018-09-05T09:30:42.142Z,20.40
2018-09-05T09:33:15.863Z,20.50
2018-09-05T09:35:50.317Z,20.60
2018-09-05T09:38:25.039Z,20.60
2018-09-05T09:40:58.687Z,20.70
2018-09-05T09:43:33.636Z,20.70
2018-09-05T09:46:08.618Z,20.80
2018-09-05T09:48:43.425Z,20.90
2018-09-05T09:51:19.425Z,20.90
2018-09-05T09:53:54.950Z,21.00
2018-09-05T09:56:29.925Z,21.00
2018-09-05T09:59:04.427Z,21.10
2018-09-05T10:01:43.093Z,21.20
2018-09-05T10:04:21.435Z,21.20
2018-09-05T10:07:00.739Z,21.20
2018-09-05T10:09:38.684Z,21.20
2018-09-05T10:12:17.223Z,21.30
2018-09-05T10:14:56.560Z,21.30
2018-09-05T10:17:37.248Z,21.40
2018-09-05T10:20:10.623Z,21.50
2018-09-05T10:22:45.345Z,21.60
2018-09-05T10:25:20.003Z,21.60
2018-09-05T10:27:54.215Z,21.60
2018-09-05T10:30:29.588Z,21.70
2018-09-05T10:33:04.752Z,21.80
2018-09-05T10:35:39.264Z,21.80
2018-09-05T10:38:13.701Z,21.90
2018-09-05T10:40:47.775Z,21.90
2018-09-05T10:43:21.666Z,21.90
2018-09-05T10:45:56.753Z,21.90
2018-09-05T10:48:31.687Z,21.90
2018-09-05T10:51:06.572Z,22.00
2018-09-05T10:53:41.380Z,21.90
2018-09-05T10:56:17.241Z,21.90
2018-09-05T10:58:51.830Z,22.00
2018-09-05T11:01:25.838Z,22.10
2018-09-05T11:03:59.761Z,22.20
2018-09-05T11:06:32.615Z,22.30
2018-09-05T11:09:07.117Z,22.30
2018-09-05T11:11:41.527Z,22.40
2018-09-05T11:14:14.226Z,22.50
2018-09-05T11:16:47.249Z,22.60
2018-09-05T11:19:18.904Z,22.60
2018-09-05T11:21:48.721Z,22.70
2018-09-05T11:24:23.089Z,22.70
2018-09-05T11:26:57.044Z,22.80
2018-09-05T11:29:30.735Z,22.80
2018-09-05T11:32:03.617Z,22.90
2018-09-05T11:34:38.254Z,23.00
2018-09-05T11:37:11.726Z,23.00
2018-09-05T11:39:45.604Z,23.10
2018-09-05T11:42:18.422Z,23.10
2018-09-05T11:44:51.759Z,23.20
2018-09-05T11:47:25.985Z,23.30
2018-09-05T11:49:59.897Z,23.30
2018-09-05T11:52:37.121Z,23.40
2018-09-05T11:55:11.688Z,23.50
2018-09-05T11:57:46.460Z,23.60
2018-09-05T12:00:18.291Z,23.60
2018-09-05T12:02:51.864Z,23.70
2018-09-05T12:05:28.085Z,23.70
2018-09-05T12:08:00.549Z,23.80
2018-09-05T12:10:33.417Z,23.90
2018-09-05T12:13:07.168Z,24.00
2018-09-05T12:15:39.824Z,24.10
2018-09-05T12:18:14.940Z,24.20
2018-09-05T12:20:47.973Z,24.40
2018-09-05T12:23:22.692Z,24.50
2018-09-05T12:25:56.798Z,24.60
2018-09-05T12:28:30.388Z,24.80
2018-09-05T12:31:04.636Z,25.00
2018-09-05T12:33:37.161Z,25.30
2018-09-05T12:36:09.973Z,27.00
2018-09-05T12:38:43.013Z,30.10
2018-09-05T12:41:18.013Z,33.30
2018-09-05T12:43:51.249Z,36.00
2018-09-05T12:46:24.017Z,38.00
2018-09-05T12:48:59.731Z,39.60
2018-09-05T12:51:33.540Z,41.00
2018-09-05T12:54:07.527Z,42.00
2018-09-05T12:56:42.264Z,43.00
2018-09-05T12:59:19.379Z,43.80
2018-09-05T13:01:53.735Z,44.30
2018-09-05T13:04:29.930Z,44.90
2018-09-05T13:07:05.107Z,45.50
2018-09-05T13:09:39.382Z,46.10
2018-09-05T13:12:15.493Z,46.60
2018-09-05T13:14:49.538Z,47.00
2018-09-05T13:17:25.454Z,47.40
2018-09-05T13:20:01.169Z,47.80
2018-09-05T13:22:40.476Z,48.00
2018-09-05T13:25:19.725Z,48.60
2018-09-05T13:27:58.243Z,49.00
2018-09-05T13:30:36.242Z,49.20
2018-09-05T13:33:13.149Z,49.30
2018-09-05T13:35:50.529Z,49.50
2018-09-05T13:38:27.525Z,49.80
2018-09-05T13:41:04.850Z,50.00
2018-09-05T13:43:41.964Z,50.40
2018-09-05T13:46:19.604Z,50.60
2018-09-05T13:48:55.072Z,50.80
2018-09-05T13:51:31.231Z,51.00
2018-09-05T13:54:06.901Z,51.10
2018-09-05T13:56:41.433Z,51.30
2018-09-05T13:59:22.136Z,51.50
2018-09-05T14:01:58.283Z,51.70
2018-09-05T14:04:33.242Z,51.90
2018-09-05T14:07:09.271Z,51.90
2018-09-05T14:09:44.441Z,52.10
2018-09-05T14:12:25.370Z,52.30
2018-09-05T14:15:02.165Z,52.40
2018-09-05T14:17:41.077Z,52.60
2018-09-05T14:20:22.046Z,52.60
2018-09-05T14:22:59.124Z,52.80
2018-09-05T14:25:35.966Z,53.00
2018-09-05T14:28:11.593Z,52.60
2018-09-05T14:30:48.141Z,51.50
2018-09-05T14:33:24.578Z,50.50
2018-09-05T14:36:01.807Z,49.80
2018-09-05T14:38:39.688Z,48.40
2018-09-05T14:41:15.118Z,46.50
2018-09-05T14:43:50.425Z,44.90
2018-09-05T14:46:25.517Z,45.70
2018-09-05T14:48:59.284Z,47.90
2018-09-05T14:51:38.047Z,49.40
2018-09-05T14:54:15.146Z,48.50
2018-09-05T14:56:50.331Z,46.00
2018-09-05T14:59:27.365Z,43.50
2018-09-05T15:02:08.404Z,41.60
2018-09-05T15:04:43.959Z,40.20
2018-09-05T15:07:17.975Z,38.90
2018-09-05T15:09:50.618Z,38.00
2018-09-05T15:12:26.393Z,37.20
2018-09-05T15:15:01.918Z,36.70
2018-09-05T15:17:36.893Z,36.20
2018-09-05T15:20:13.914Z,35.80
2018-09-05T15:22:50.458Z,35.40
2018-09-05T15:25:25.161Z,35.20
2018-09-05T15:28:00.096Z,37.00
2018-09-05T15:30:37.407Z,37.50
2018-09-05T15:33:11.973Z,37.90
2018-09-05T15:35:50.356Z,37.00
2018-09-05T15:38:25.604Z,35.70
2018-09-05T15:41:00.516Z,34.60
2018-09-05T15:43:36.852Z,33.90
2018-09-05T15:46:16.934Z,33.40
2018-09-05T15:48:51.609Z,32.80
2018-09-05T15:51:26.860Z,32.40
2018-09-05T15:54:02.848Z,32.10
2018-09-05T15:56:39.613Z,31.80
2018-09-05T15:59:14.689Z,31.60
2018-09-05T16:01:49.213Z,31.40
2018-09-05T16:04:24.527Z,31.20
2018-09-05T16:07:00.959Z,31.10
2018-09-05T16:09:35.224Z,31.20
2018-09-05T16:12:09.390Z,31.10
2018-09-05T16:14:45.364Z,31.20
2018-09-05T16:17:27.463Z,31.00
2018-09-05T16:19:59.917Z,31.00
2018-09-05T16:22:28.719Z,31.00
2018-09-05T16:24:57.609Z,31.10
2018-09-05T16:27:31.807Z,30.90
2018-09-05T16:30:07.210Z,30.70
2018-09-05T16:32:42.763Z,30.60
2018-09-05T16:35:17.716Z,30.50
2018-09-05T16:37:52.857Z,30.40
2018-09-05T16:40:25.404Z,30.30
2018-09-05T16:42:59.183Z,30.10
2018-09-05T16:45:32.954Z,30.00
2018-09-05T16:48:05.781Z,29.90
2018-09-05T16:50:42.107Z,29.80
2018-09-05T16:53:10.907Z,29.70
2018-09-05T16:55:46.058Z,29.50
2018-09-05T16:58:23.017Z,29.40
2018-09-05T17:01:00.256Z,29.20
2018-09-05T17:03:35.983Z,29.10
2018-09-05T17:06:12.243Z,29.00
2018-09-05T17:08:48.020Z,28.80
2018-09-05T17:11:23.617Z,28.60
2018-09-05T17:13:59.687Z,28.40
2018-09-05T17:16:34.041Z,28.30
2018-09-05T17:19:09.554Z,28.10
2018-09-05T17:21:45.023Z,28.00
2018-09-05T17:24:20.376Z,27.80
2018-09-05T17:26:56.940Z,27.70
2018-09-05T17:29:32.533Z,27.50
2018-09-05T17:32:09.393Z,27.40
2018-09-05T17:34:44.458Z,27.30
2018-09-05T17:37:18.914Z,27.10
2018-09-05T17:39:54.470Z,27.00
2018-09-05T17:45:16.987Z,26.70
2018-09-05T17:47:46.033Z,26.50
2018-09-05T17:50:15.296Z,26.40
2018-09-05T17:52:44.268Z,26.30
2018-09-05T17:55:13.484Z,26.30
2018-09-05T17:57:42.385Z,26.10
2018-09-05T18:00:11.504Z,26.10
2018-09-05T18:02:40.560Z,26.00
2018-09-05T18:05:09.722Z,25.90
2018-09-05T18:07:38.783Z,25.70
2018-09-05T18:10:08.210Z,25.60
2018-09-05T18:12:37.351Z,25.50
2018-09-05T18:15:08.368Z,25.40
2018-09-05T18:17:37.917Z,25.30
2018-09-05T18:20:08.141Z,25.20
2018-09-05T18:22:37.749Z,25.00
2018-09-05T18:25:07.752Z,25.00
2018-09-05T18:27:39.032Z,24.90
2018-09-05T18:30:09.422Z,24.80
2018-09-05T18:32:38.985Z,24.70
2018-09-05T18:35:08.306Z,24.60
2018-09-05T18:37:37.855Z,24.40
2018-09-05T18:40:08.606Z,24.30
2018-09-05T18:42:40.922Z,24.20
2018-09-05T18:45:10.901Z,24.10
2018-09-05T18:47:40.163Z,24.00
2018-09-05T18:50:09.786Z,23.90
2018-09-05T18:52:39.063Z,23.90
2018-09-05T18:55:09.766Z,23.80
2018-09-05T18:57:39.630Z,23.80
2018-09-05T19:00:10.611Z,23.60
2018-09-05T19:02:40.304Z,23.50
2018-09-05T19:05:10.931Z,23.40
2018-09-05T19:07:40.351Z,23.20
2018-09-05T19:10:09.724Z,23.20
2018-09-05T19:12:39.841Z,23.00
2018-09-05T19:15:10.138Z,22.90
2018-09-05T19:17:39.658Z,22.90
2018-09-05T19:20:15.980Z,22.90
2018-09-05T19:22:46.923Z,22.80
2018-09-05T19:25:19.367Z,22.60
2018-09-05T19:27:50.221Z,22.60
2018-09-05T19:30:23.085Z,22.50
2018-09-05T19:32:58.873Z,22.40
2018-09-05T19:35:30.316Z,22.30
2018-09-05T19:38:04.834Z,22.20
2018-09-05T19:40:38.027Z,22.20
2018-09-05T19:43:13.841Z,22.10
2018-09-05T19:45:44.628Z,22.10
2018-09-05T19:48:31.334Z,22.10
2018-09-05T19:54:17.985Z,22.00
2018-09-05T19:56:50.932Z,21.90
2018-09-05T19:59:20.094Z,21.80
2018-09-05T20:02:05.919Z,21.70
2018-09-05T20:04:44.891Z,21.60
2018-09-05T20:07:20.577Z,21.50
2018-09-05T20:09:50.892Z,21.40
2018-09-05T20:12:35.840Z,21.40
2018-09-05T20:15:10.649Z,21.30
2018-09-05T20:17:52.972Z,21.20
2018-09-05T20:20:24.696Z,21.10
2018-09-05T20:23:00.694Z,21.00
2018-09-05T20:25:54.085Z,21.00
2018-09-05T20:28:25.387Z,20.90
2018-09-05T20:31:04.257Z,20.80
2018-09-05T20:34:13.477Z,20.80
2018-09-05T20:36:51.293Z,20.70
2018-09-05T20:39:25.514Z,20.70
2018-09-05T20:41:57.980Z,20.70
2018-09-05T20:44:33.813Z,20.70
2018-09-05T20:47:10.099Z,20.60
2018-09-05T20:49:40.901Z,20.60
2018-09-05T20:52:10.571Z,20.50
2018-09-05T20:54:42.147Z,20.50
2018-09-05T20:57:13.024Z,20.40
2018-09-05T20:59:46.291Z,20.30
2018-09-05T21:02:17.641Z,20.30
2018-09-05T21:04:48.866Z,20.20
2018-09-05T21:07:19.796Z,20.20
2018-09-05T21:09:50.833Z,20.20
2018-09-05T21:12:22.115Z,20.10
2018-09-05T21:14:52.527Z,20.10
2018-09-05T21:17:24.460Z,20.00
2018-09-05T21:19:56.557Z,20.00
2018-09-05T21:22:27.374Z,20.00
2018-09-05T21:24:58.941Z,19.90
2018-09-05T21:27:29.773Z,19.80
2018-09-05T21:29:59.824Z,19.70
2018-09-05T21:32:29.059Z,19.70
2018-09-05T21:34:58.869Z,19.70
2018-09-05T21:37:28.331Z,19.60
2018-09-05T21:39:57.828Z,19.50
2018-09-05T21:42:26.911Z,19.50
2018-09-05T21:44:56.166Z,19.50
2018-09-05T21:47:25.938Z,19.50
2018-09-05T21:49:55.451Z,19.50
2018-09-05T21:52:24.989Z,19.50
2018-09-05T21:54:54.121Z,19.50
2018-09-05T21:57:23.066Z,19.40
2018-09-05T21:59:52.223Z,19.40
2018-09-05T22:02:21.298Z,19.40
2018-09-05T22:04:50.971Z,19.40
2018-09-05T22:07:20.299Z,19.30
2018-09-05T22:09:49.216Z,19.30
2018-09-05T22:12:18.457Z,19.30
2018-09-05T22:14:47.650Z,19.20
2018-09-05T22:17:17.393Z,19.20
2018-09-05T22:19:46.817Z,19.20
2018-09-05T22:22:15.968Z,19.10
2018-09-05T22:24:45.053Z,19.10
2018-09-05T22:27:14.051Z,19.10
2018-09-05T22:29:43.071Z,19.00
2018-09-05T22:32:12.454Z,19.00
2018-09-05T22:34:41.675Z,19.00
2018-09-05T22:37:11.437Z,19.00
2018-09-05T22:39:40.960Z,19.00
2018-09-05T22:42:12.608Z,19.00
2018-09-05T22:44:53.738Z,18.90
2018-09-05T22:47:34.002Z,18.90
2018-09-05T22:50:52.719Z,18.80
2018-09-05T22:53:45.307Z,18.80
2018-09-05T22:57:34.820Z,18.70
2018-09-05T23:02:17.646Z,18.70
2018-09-05T23:04:58.395Z,18.60
2018-09-05T23:07:39.424Z,18.50
2018-09-05T23:10:20.320Z,18.50
2018-09-05T23:13:00.300Z,18.50
2018-09-05T23:15:40.290Z,18.50
2018-09-05T23:18:21.622Z,18.50
2018-09-05T23:21:26.683Z,18.50
2018-09-05T23:24:03.838Z,18.40
2018-09-05T23:26:33.591Z,18.40
2018-09-05T23:29:02.755Z,18.40
2018-09-05T23:31:32.076Z,18.40
2018-09-05T23:34:01.836Z,18.40
2018-09-05T23:36:31.376Z,18.40
2018-09-05T23:39:00.804Z,18.40
2018-09-05T23:41:30.439Z,18.30
2018-09-05T23:44:00.125Z,18.30
2018-09-05T23:46:29.330Z,18.20
2018-09-05T23:48:58.539Z,18.20
2018-09-05T23:51:28.075Z,18.10
2018-09-05T23:53:57.831Z,18.10
2018-09-05T23:56:26.889Z,18.10
2018-09-05T23:58:55.995Z,18.10
